createdAt,value
2017-12-05T00:02:06.721Z,17.37
2017-12-05T00:04:36.723Z,18.43
2017-12-05T00:07:06.865Z,17.23
2017-12-05T00:09:36.963Z,16.30
2017-12-05T00:12:07.084Z,17.83
2017-12-05T00:14:36.868Z,17.07
2017-12-05T00:17:06.937Z,14.63
2017-12-05T00:19:37.057Z,18.00
2017-12-05T00:22:07.214Z,16.33
2017-12-05T00:24:37.298Z,16.87
2017-12-05T00:27:07.362Z,20.17
2017-12-05T00:29:37.350Z,23.10
2017-12-05T00:32:07.449Z,15.63
2017-12-05T00:34:37.358Z,15.53
2017-12-05T00:37:07.775Z,15.30
2017-12-05T00:39:37.657Z,15.43
2017-12-05T00:42:07.598Z,15.73
2017-12-05T00:44:37.684Z,23.20
2017-12-05T00:47:07.857Z,20.57
2017-12-05T00:49:37.795Z,16.37
2017-12-05T00:52:08.099Z,16.27
2017-12-05T00:54:38.024Z,16.77
2017-12-05T00:57:08.114Z,18.13
2017-12-05T00:59:38.175Z,14.83
2017-12-05T01:02:08.158Z,16.90
2017-12-05T01:04:38.243Z,17.70
2017-12-05T01:07:08.570Z,16.37
2017-12-05T01:09:38.484Z,17.83
2017-12-05T01:12:08.490Z,17.37
2017-12-05T01:14:38.609Z,16.23
2017-12-05T01:17:08.619Z,17.27
2017-12-05T01:19:38.859Z,16.10
2017-12-05T01:22:08.818Z,17.67
2017-12-05T01:24:38.934Z,20.07
2017-12-05T01:27:08.994Z,17.33
2017-12-05T01:29:39.084Z,17.43
2017-12-05T01:32:09.221Z,16.70
2017-12-05T01:34:39.236Z,18.70
2017-12-05T01:37:09.340Z,20.63
2017-12-05T01:39:39.725Z,20.07
2017-12-05T01:42:09.421Z,17.97
2017-12-05T01:44:39.535Z,16.60
2017-12-05T01:47:09.762Z,19.87
2017-12-05T01:49:39.631Z,17.07
2017-12-05T01:52:09.763Z,18.13
2017-12-05T01:54:39.883Z,16.60
2017-12-05T01:57:09.767Z,17.77
2017-12-05T01:59:39.862Z,16.23
2017-12-05T02:02:09.966Z,16.67
2017-12-05T02:04:39.985Z,17.93
2017-12-05T02:07:10.142Z,16.90
2017-12-05T02:09:40.299Z,18.47
2017-12-05T02:12:10.351Z,17.50
2017-12-05T02:14:40.357Z,18.53
2017-12-05T02:17:10.338Z,19.53
2017-12-05T02:19:40.521Z,18.53
2017-12-05T02:22:10.614Z,18.77
2017-12-05T02:24:40.703Z,17.67
2017-12-05T02:27:10.706Z,18.33
2017-12-05T02:29:40.831Z,18.47
2017-12-05T02:32:10.848Z,18.60
2017-12-05T02:34:40.862Z,18.33
2017-12-05T02:37:11.015Z,18.53
2017-12-05T02:39:41.165Z,18.70
2017-12-05T02:42:11.186Z,18.00
2017-12-05T02:44:41.518Z,16.83
2017-12-05T02:47:11.508Z,18.90
2017-12-05T02:49:41.450Z,17.50
2017-12-05T02:52:11.533Z,16.97
2017-12-05T02:54:41.766Z,18.97
2017-12-05T02:57:11.799Z,17.93
2017-12-05T02:59:41.987Z,19.27
2017-12-05T03:02:11.926Z,18.87
2017-12-05T03:04:41.953Z,20.47
2017-12-05T03:07:12.035Z,20.17
2017-12-05T03:09:42.091Z,19.23
2017-12-05T03:12:12.223Z,18.27
2017-12-05T03:14:42.132Z,18.10
2017-12-05T03:17:12.313Z,19.00
2017-12-05T03:19:42.238Z,19.70
2017-12-05T03:22:12.533Z,20.70
2017-12-05T03:24:42.513Z,19.27
2017-12-05T03:27:12.481Z,18.67
2017-12-05T03:29:42.692Z,19.00
2017-12-05T03:32:12.597Z,19.53
2017-12-05T03:34:42.554Z,18.80
2017-12-05T03:37:12.802Z,19.97
2017-12-05T03:39:42.853Z,20.20
2017-12-05T03:42:12.928Z,21.57
2017-12-05T03:44:42.897Z,21.43
2017-12-05T03:47:12.963Z,22.50
2017-12-05T03:49:43.019Z,21.67
2017-12-05T03:52:13.228Z,21.47
2017-12-05T03:54:43.313Z,21.03
2017-12-05T03:57:13.230Z,19.77
2017-12-05T03:59:43.379Z,19.17
2017-12-05T04:02:13.425Z,20.30
2017-12-05T04:04:43.528Z,21.03
2017-12-05T04:07:13.831Z,20.80
2017-12-05T04:09:43.829Z,20.20
2017-12-05T04:12:13.786Z,21.40
2017-12-05T04:14:43.846Z,21.90
2017-12-05T04:17:13.962Z,19.90
2017-12-05T04:19:43.992Z,20.27
2017-12-05T04:22:15.002Z,20.53
2017-12-05T04:24:44.654Z,19.17
2017-12-05T04:27:14.332Z,18.50
2017-12-05T04:29:44.243Z,20.00
2017-12-05T04:32:14.529Z,19.10
2017-12-05T04:34:44.366Z,18.87
2017-12-05T04:37:14.566Z,18.17
2017-12-05T04:39:44.826Z,18.13
2017-12-05T04:42:14.690Z,16.97
2017-12-05T04:44:44.634Z,17.67
2017-12-05T04:47:14.825Z,18.07
2017-12-05T04:49:44.966Z,17.33
2017-12-05T04:52:15.015Z,16.40
2017-12-05T04:54:45.030Z,16.87
2017-12-05T04:57:15.110Z,18.33
2017-12-05T04:59:44.998Z,19.37
2017-12-05T05:02:15.196Z,17.37
2017-12-05T05:04:45.197Z,17.33
2017-12-05T05:07:15.397Z,18.43
2017-12-05T05:09:45.514Z,17.00
2017-12-05T05:12:15.529Z,17.40
2017-12-05T05:14:45.616Z,16.80
2017-12-05T05:17:15.618Z,17.33
2017-12-05T05:19:45.842Z,17.37
2017-12-05T05:22:15.896Z,17.30
2017-12-05T05:24:46.016Z,17.17
2017-12-05T05:27:16.163Z,16.23
2017-12-05T05:29:46.279Z,17.07
2017-12-05T05:32:16.314Z,18.07
2017-12-05T05:34:46.325Z,17.80
2017-12-05T05:37:16.384Z,16.87
2017-12-05T05:39:46.453Z,18.10
2017-12-05T05:42:16.501Z,17.40
2017-12-05T05:44:46.499Z,19.13
2017-12-05T05:47:16.702Z,16.67
2017-12-05T05:49:46.629Z,19.00
2017-12-05T05:52:16.747Z,18.70
2017-12-05T05:54:46.785Z,17.70
2017-12-05T05:57:16.872Z,18.43
2017-12-05T05:59:46.993Z,16.27
2017-12-05T06:02:16.870Z,18.80
2017-12-05T06:04:47.027Z,17.87
2017-12-05T06:07:17.177Z,17.47
2017-12-05T06:09:47.266Z,18.03
2017-12-05T06:12:17.359Z,17.43
2017-12-05T06:14:47.295Z,18.13
2017-12-05T06:17:17.565Z,17.67
2017-12-05T06:19:47.533Z,18.30
2017-12-05T06:22:17.879Z,17.97
2017-12-05T06:24:47.702Z,19.57
2017-12-05T06:27:18.250Z,18.00
2017-12-05T06:29:47.835Z,18.27
2017-12-05T06:32:17.852Z,16.70
2017-12-05T06:34:48.086Z,16.87
2017-12-05T06:37:18.173Z,17.10
2017-12-05T06:39:48.245Z,17.33
2017-12-05T06:42:18.291Z,18.47
2017-12-05T06:44:48.434Z,16.93
2017-12-05T06:47:18.457Z,19.27
2017-12-05T06:49:48.713Z,20.70
2017-12-05T06:52:18.806Z,18.43
2017-12-05T06:54:49.558Z,19.20
2017-12-05T06:57:19.212Z,19.70
2017-12-05T06:59:48.817Z,19.10
2017-12-05T07:02:18.801Z,18.70
2017-12-05T07:04:49.022Z,18.63
2017-12-05T07:07:20.922Z,17.93
2017-12-05T07:09:50.968Z,18.20
2017-12-05T07:12:21.089Z,19.40
2017-12-05T07:14:51.068Z,20.60
2017-12-05T07:17:21.187Z,20.20
2017-12-05T07:19:51.303Z,20.60
2017-12-05T07:22:21.368Z,19.63
2017-12-05T07:24:51.344Z,20.47
2017-12-05T07:27:21.474Z,19.87
2017-12-05T07:29:51.613Z,20.00
2017-12-05T07:32:21.694Z,22.10
2017-12-05T07:34:51.884Z,20.63
2017-12-05T07:37:22.395Z,21.27
2017-12-05T07:39:52.855Z,20.13
2017-12-05T07:42:22.796Z,19.83
2017-12-05T07:44:52.917Z,19.30
2017-12-05T07:47:23.045Z,17.87
2017-12-05T07:49:53.033Z,17.70
2017-12-05T07:52:23.240Z,18.17
2017-12-05T07:54:53.018Z,17.50
2017-12-05T07:57:23.158Z,17.37
2017-12-05T07:59:53.316Z,19.17
2017-12-05T08:02:23.481Z,16.93
2017-12-05T08:04:53.530Z,17.27
2017-12-05T08:07:23.749Z,17.20
2017-12-05T08:09:53.790Z,17.57
2017-12-05T08:12:23.741Z,17.37
2017-12-05T08:14:53.656Z,18.10
2017-12-05T08:17:23.938Z,18.40
2017-12-05T08:19:53.965Z,17.97
2017-12-05T08:22:23.870Z,17.97
2017-12-05T08:24:53.958Z,17.53
2017-12-05T08:27:23.976Z,19.20
2017-12-05T08:29:54.026Z,19.50
2017-12-05T08:32:24.282Z,19.53
2017-12-05T08:34:54.281Z,20.10
2017-12-05T08:37:24.285Z,19.53
2017-12-05T08:39:54.400Z,18.00
2017-12-05T08:42:24.659Z,18.53
2017-12-05T08:44:54.477Z,18.63
2017-12-05T08:47:24.518Z,18.10
2017-12-05T08:49:54.641Z,17.33
2017-12-05T08:52:24.762Z,18.30
2017-12-05T08:54:54.807Z,18.63
2017-12-05T08:57:24.827Z,16.67
2017-12-05T08:59:54.909Z,18.40
2017-12-05T09:02:25.958Z,18.43
2017-12-05T09:04:55.598Z,16.87
2017-12-05T09:07:25.206Z,16.47
2017-12-05T09:09:55.116Z,17.37
2017-12-05T09:12:25.325Z,16.47
2017-12-05T09:14:55.378Z,14.77
2017-12-05T09:17:25.366Z,14.20
2017-12-05T09:19:55.455Z,14.63
2017-12-05T09:22:25.317Z,14.97
2017-12-05T09:24:55.412Z,14.47
2017-12-05T09:27:25.492Z,14.80
2017-12-05T09:29:55.446Z,13.87
2017-12-05T09:32:25.660Z,15.13
2017-12-05T09:34:55.812Z,15.13
2017-12-05T09:37:25.768Z,13.57
2017-12-05T09:39:55.788Z,14.10
2017-12-05T09:42:25.903Z,13.50
2017-12-05T09:44:56.256Z,15.20
2017-12-05T09:47:26.172Z,14.10
2017-12-05T09:49:56.302Z,13.10
2017-12-05T09:52:26.210Z,14.10
2017-12-05T09:54:56.251Z,14.10
2017-12-05T09:57:26.348Z,14.17
2017-12-05T09:59:56.512Z,13.03
2017-12-05T10:02:26.682Z,13.53
2017-12-05T10:04:56.780Z,12.57
2017-12-05T10:07:26.747Z,12.63
2017-12-05T10:09:56.815Z,13.20
2017-12-05T10:12:26.913Z,12.37
2017-12-05T10:14:56.874Z,12.80
2017-12-05T10:17:27.129Z,13.63
2017-12-05T10:19:57.197Z,13.70
2017-12-05T10:22:27.118Z,13.00
2017-12-05T10:24:57.157Z,12.30
2017-12-05T10:27:27.238Z,12.47
2017-12-05T10:29:57.418Z,13.00
2017-12-05T10:32:27.508Z,12.43
2017-12-05T10:34:57.678Z,13.40
2017-12-05T10:37:27.735Z,11.80
2017-12-05T10:39:57.641Z,12.57
2017-12-05T10:42:27.797Z,13.77
2017-12-05T10:44:57.881Z,11.90
2017-12-05T10:47:27.970Z,12.27
2017-12-05T10:49:57.975Z,12.30
2017-12-05T10:52:28.061Z,13.07
2017-12-05T10:54:58.095Z,13.67
2017-12-05T10:57:28.173Z,13.23
2017-12-05T10:59:58.480Z,13.93
2017-12-05T11:02:28.406Z,12.73
2017-12-05T11:04:58.619Z,13.37
2017-12-05T11:07:28.575Z,14.10
2017-12-05T11:09:58.712Z,13.47
2017-12-05T11:12:28.701Z,12.20
2017-12-05T11:14:58.809Z,12.53
2017-12-05T11:17:28.979Z,11.43
2017-12-05T11:19:59.166Z,13.30
2017-12-05T11:22:29.163Z,12.87
2017-12-05T11:24:59.091Z,12.43
2017-12-05T11:27:29.214Z,12.70
2017-12-05T11:29:59.441Z,13.97
2017-12-05T11:32:29.457Z,15.10
2017-12-05T11:34:59.477Z,12.10
2017-12-05T11:37:29.495Z,12.73
2017-12-05T11:39:59.576Z,15.43
2017-12-05T11:42:29.684Z,13.37
2017-12-05T11:44:59.736Z,12.57
2017-12-05T11:47:29.899Z,13.67
2017-12-05T11:49:59.874Z,13.33
2017-12-05T11:52:30.038Z,13.83
2017-12-05T11:55:00.010Z,12.43
2017-12-05T11:57:30.097Z,13.90
2017-12-05T12:00:00.114Z,11.87
2017-12-05T12:02:30.374Z,12.07
2017-12-05T12:05:00.386Z,12.77
2017-12-05T12:07:30.371Z,12.43
2017-12-05T12:10:01.292Z,12.13
2017-12-05T12:12:30.886Z,12.97
2017-12-05T12:15:00.530Z,13.20
2017-12-05T12:17:30.645Z,12.60
2017-12-05T12:20:00.638Z,12.40
2017-12-05T12:22:30.675Z,13.20
2017-12-05T12:25:00.851Z,16.90
2017-12-05T12:27:31.028Z,19.80
2017-12-05T12:30:01.175Z,16.23
2017-12-05T12:32:31.292Z,20.43
2017-12-05T12:35:01.292Z,20.47
2017-12-05T12:37:31.267Z,18.13
2017-12-05T12:40:01.476Z,17.97
2017-12-05T12:42:31.422Z,14.70
2017-12-05T12:45:01.504Z,14.60
2017-12-05T12:47:31.698Z,14.60
2017-12-05T12:50:01.777Z,16.57
2017-12-05T12:52:31.764Z,15.97
2017-12-05T12:55:01.732Z,13.57
2017-12-05T12:57:32.001Z,15.63
2017-12-05T13:00:01.981Z,16.60
2017-12-05T13:02:32.135Z,17.00
2017-12-05T13:05:02.357Z,17.73
2017-12-05T13:07:32.133Z,15.80
2017-12-05T13:10:02.156Z,15.80
2017-12-05T13:12:32.161Z,17.90
2017-12-05T13:15:02.354Z,17.43
2017-12-05T13:17:32.431Z,15.70
2017-12-05T13:20:02.421Z,16.83
2017-12-05T13:22:32.585Z,14.83
2017-12-05T13:25:02.496Z,16.20
2017-12-05T13:27:32.590Z,16.90
2017-12-05T13:30:02.728Z,15.73
2017-12-05T13:32:32.794Z,16.80
2017-12-05T13:35:02.869Z,16.90
2017-12-05T13:37:32.788Z,16.33
2017-12-05T13:40:02.944Z,14.10
2017-12-05T13:42:33.043Z,16.43
2017-12-05T13:45:03.146Z,17.40
2017-12-05T13:47:33.290Z,15.37
2017-12-05T13:50:03.277Z,16.00
2017-12-05T13:52:33.215Z,15.60
2017-12-05T13:55:03.301Z,16.20
2017-12-05T13:57:33.449Z,15.80
2017-12-05T14:00:03.678Z,16.93
2017-12-05T14:02:33.718Z,16.60
2017-12-05T14:05:03.812Z,15.13
2017-12-05T14:07:33.840Z,15.00
2017-12-05T14:10:03.800Z,16.23
2017-12-05T14:12:33.958Z,16.37
2017-12-05T14:15:04.010Z,16.67
2017-12-05T14:17:34.306Z,16.80
2017-12-05T14:20:04.218Z,16.20
2017-12-05T14:22:34.238Z,18.30
2017-12-05T14:25:04.271Z,17.70
2017-12-05T14:27:34.359Z,18.60
2017-12-05T14:30:04.575Z,17.60
2017-12-05T14:32:34.920Z,18.23
2017-12-05T14:35:04.594Z,18.67
2017-12-05T14:37:34.623Z,18.63
2017-12-05T14:40:04.874Z,18.43
2017-12-05T14:42:34.894Z,17.93
2017-12-05T14:45:04.911Z,18.00
2017-12-05T14:47:34.950Z,17.83
2017-12-05T14:50:04.979Z,17.87
2017-12-05T14:52:35.130Z,19.57
2017-12-05T14:55:05.109Z,20.10
2017-12-05T14:57:35.036Z,19.13
2017-12-05T15:00:05.287Z,20.13
2017-12-05T15:02:35.545Z,18.37
2017-12-05T15:05:05.438Z,20.50
2017-12-05T15:07:35.374Z,19.20
2017-12-05T15:10:05.889Z,19.43
2017-12-05T15:12:35.622Z,18.57
2017-12-05T15:15:05.733Z,18.90
2017-12-05T15:17:35.797Z,19.80
2017-12-05T15:20:05.782Z,19.00
2017-12-05T15:22:35.951Z,20.37
2017-12-05T15:25:05.896Z,18.70
2017-12-05T15:27:35.927Z,19.57
2017-12-05T15:30:06.115Z,20.07
2017-12-05T15:32:36.278Z,19.00
2017-12-05T15:35:06.630Z,18.87
2017-12-05T15:37:36.614Z,18.47
2017-12-05T15:40:06.693Z,18.27
2017-12-05T15:42:36.775Z,17.83
2017-12-05T15:45:06.895Z,19.10
2017-12-05T15:47:37.060Z,19.40
2017-12-05T15:50:07.098Z,20.67
2017-12-05T15:52:37.243Z,20.43
2017-12-05T15:55:07.158Z,21.60
2017-12-05T15:57:37.138Z,23.13
2017-12-05T16:00:07.265Z,24.47
2017-12-05T16:02:37.370Z,22.80
2017-12-05T16:05:07.488Z,22.10
2017-12-05T16:07:37.433Z,25.43
2017-12-05T16:10:07.450Z,27.57
2017-12-05T16:12:37.609Z,23.50
2017-12-05T16:15:07.885Z,23.60
2017-12-05T16:17:37.866Z,20.77
2017-12-05T16:20:08.019Z,21.10
2017-12-05T16:22:37.804Z,20.83
2017-12-05T16:25:08.197Z,22.97
2017-12-05T16:27:37.867Z,21.80
2017-12-05T16:30:08.079Z,23.40
2017-12-05T16:32:38.278Z,22.23
2017-12-05T16:35:08.273Z,24.33
2017-12-05T16:37:38.283Z,21.97
2017-12-05T16:40:08.396Z,22.47
2017-12-05T16:42:38.398Z,21.27
2017-12-05T16:45:08.676Z,20.80
2017-12-05T16:47:38.786Z,22.07
2017-12-05T16:50:08.786Z,24.63
2017-12-05T16:52:38.806Z,24.60
2017-12-05T16:55:08.794Z,23.00
2017-12-05T16:57:38.913Z,22.47
2017-12-05T17:00:11.355Z,22.70
2017-12-05T17:02:42.338Z,22.93
2017-12-05T17:05:12.556Z,25.00
2017-12-05T17:07:43.739Z,24.03
2017-12-05T17:10:13.866Z,23.93
2017-12-05T17:12:43.983Z,25.60
2017-12-05T17:15:14.061Z,23.53
2017-12-05T17:17:44.178Z,21.03
2017-12-05T17:20:14.343Z,23.33
2017-12-05T17:22:44.346Z,22.23
2017-12-05T17:25:14.879Z,22.80
2017-12-05T17:27:44.962Z,23.27
2017-12-05T17:30:15.094Z,22.13
2017-12-05T17:32:45.264Z,19.60
2017-12-05T17:35:15.150Z,24.43
2017-12-05T17:37:45.130Z,22.33
2017-12-05T17:40:15.263Z,21.83
2017-12-05T17:42:45.274Z,22.27
2017-12-05T17:45:15.394Z,23.83
2017-12-05T17:47:45.515Z,22.43
2017-12-05T17:50:15.453Z,25.17
2017-12-05T17:52:45.564Z,23.00
2017-12-05T17:55:15.688Z,23.37
2017-12-05T17:57:45.675Z,22.30
2017-12-05T18:00:15.721Z,21.87
2017-12-05T18:02:45.941Z,23.80
2017-12-05T18:05:15.833Z,21.17
2017-12-05T18:07:45.956Z,21.53
2017-12-05T18:10:16.008Z,23.70
2017-12-05T18:12:46.093Z,19.77
2017-12-05T18:15:20.500Z,22.30
2017-12-05T18:17:50.918Z,24.00
2017-12-05T18:20:21.417Z,22.73
2017-12-05T18:22:51.576Z,24.53
2017-12-05T18:25:21.610Z,21.07
2017-12-05T18:27:52.454Z,20.67
2017-12-05T18:30:22.586Z,21.57
2017-12-05T18:32:52.495Z,22.93
2017-12-05T18:35:22.597Z,22.63
2017-12-05T18:37:53.383Z,21.37
2017-12-05T18:40:25.153Z,22.93
2017-12-05T18:42:56.497Z,20.47
2017-12-05T18:45:27.919Z,21.97
2017-12-05T18:48:02.746Z,22.20
2017-12-05T18:50:35.870Z,20.90
2017-12-05T20:17:07.818Z,21.20
2017-12-05T20:19:39.480Z,20.07
2017-12-05T20:22:11.076Z,22.97
2017-12-05T20:24:42.509Z,22.50
2017-12-05T20:27:13.440Z,21.53
2017-12-05T20:29:44.816Z,21.97
2017-12-05T20:32:16.483Z,21.77
2017-12-05T20:34:47.727Z,21.60
2017-12-05T20:37:18.930Z,21.47
2017-12-05T20:39:52.529Z,22.17
2017-12-05T20:42:24.075Z,22.60
2017-12-05T20:44:55.976Z,21.17
2017-12-05T20:47:27.127Z,21.50
2017-12-05T20:49:58.912Z,22.13
2017-12-05T20:52:30.433Z,20.83
2017-12-05T20:55:01.857Z,20.30
2017-12-05T20:57:33.187Z,21.17
2017-12-05T21:00:04.706Z,22.70
2017-12-05T21:02:35.626Z,21.40
2017-12-05T21:05:07.303Z,22.37
2017-12-05T21:07:38.408Z,20.47
2017-12-05T21:10:10.009Z,20.57
2017-12-05T21:12:40.962Z,19.23
2017-12-05T21:15:13.026Z,19.37
2017-12-05T21:17:44.946Z,19.83
2017-12-05T21:20:17.009Z,19.53
2017-12-05T21:22:48.044Z,20.07
2017-12-05T21:25:20.728Z,20.40
2017-12-05T21:27:52.278Z,20.20
2017-12-05T21:30:25.376Z,21.80
2017-12-05T21:32:57.332Z,21.90
2017-12-05T21:35:28.286Z,20.63
2017-12-05T21:38:01.069Z,22.00
2017-12-05T21:40:32.805Z,20.00
2017-12-05T21:43:05.452Z,22.43
2017-12-05T21:45:37.349Z,22.23
2017-12-05T21:48:08.597Z,21.13
2017-12-05T21:50:39.442Z,22.20
2017-12-05T21:53:10.681Z,24.70
2017-12-05T21:55:42.263Z,23.53
2017-12-05T21:58:13.684Z,23.13
2017-12-05T22:00:44.423Z,22.60
2017-12-05T22:03:15.100Z,25.03
2017-12-05T22:05:46.179Z,22.50
2017-12-05T22:08:16.992Z,23.57
2017-12-05T22:10:48.368Z,24.13
2017-12-05T22:13:18.973Z,23.00
2017-12-05T22:15:49.034Z,24.10
2017-12-05T22:18:19.274Z,25.70
2017-12-05T22:20:49.247Z,25.57
2017-12-05T22:23:19.305Z,23.07
2017-12-05T22:25:49.389Z,23.37
2017-12-05T22:28:19.463Z,23.57
2017-12-05T22:30:49.584Z,22.47
2017-12-05T22:33:19.650Z,23.80
2017-12-05T22:35:49.787Z,25.33
2017-12-05T22:38:19.900Z,23.73
2017-12-05T22:40:49.825Z,23.97
2017-12-05T22:43:20.000Z,23.33
2017-12-05T22:45:50.033Z,23.63
2017-12-05T22:48:20.182Z,24.37
2017-12-05T22:50:50.068Z,24.47
2017-12-05T22:53:20.182Z,26.00
2017-12-05T22:55:50.266Z,24.77
2017-12-05T22:58:20.417Z,24.33
2017-12-05T23:00:50.491Z,24.30
2017-12-05T23:03:20.609Z,23.17
